createdAt,value
2022-08-22T00:00:00.000Z,15.72
2022-08-22T00:15:00.000Z,16.49
2022-08-22T00:30:00.000Z,17
2022-08-22T00:45:00.000Z,18.47
2022-08-22T01:00:00.000Z,17.6
2022-08-22T01:15:00.000Z,18.02
2022-08-22T01:30:00.000Z,17.9
2022-08-22T01:45:00.000Z,18.52
2022-08-22T02:00:00.000Z,19.77
2022-08-22T02:15:00.000Z,18.1
2022-08-22T02:30:00.000Z,20.11
2022-08-22T02:45:00.000Z,19.88
2022-08-22T03:00:00.000Z,18.33
2022-08-22T03:15:00.000Z,17.8
2022-08-22T03:30:00.000Z,18.27
2022-08-22T03:45:00.000Z,19.28
2022-08-22T04:00:00.000Z,20.42
2022-08-22T04:15:00.000Z,24.16
2022-08-22T04:30:00.000Z,28.09
2022-08-22T04:45:00.000Z,23.31
2022-08-22T05:00:00.000Z,22.73
2022-08-22T05:15:00.000Z,22.21
2022-08-22T05:30:00.000Z,22.28
2022-08-22T05:45:00.000Z,20.45
2022-08-22T06:00:00.000Z,20.55
2022-08-22T06:15:00.000Z,20.93
2022-08-22T06:30:00.000Z,21.07
2022-08-22T06:45:00.000Z,20.29
2022-08-22T07:00:00.000Z,20.55
2022-08-22T07:15:00.000Z,19.64
2022-08-22T07:30:00.000Z,18.92
2022-08-22T07:45:00.000Z,17.45
2022-08-22T08:00:00.000Z,18.47
2022-08-22T08:15:00.000Z,19.16
2022-08-22T08:30:00.000Z,17.15
2022-08-22T08:45:00.000Z,15.27
2022-08-22T09:00:00.000Z,12.45
2022-08-22T09:15:00.000Z,12.6
2022-08-22T09:30:00.000Z,14.64
2022-08-22T09:45:00.000Z,13.32
2022-08-22T10:00:00.000Z,11.44
2022-08-22T10:15:00.000Z,12.46
2022-08-22T10:30:00.000Z,10.44
2022-08-22T10:45:00.000Z,9.41
2022-08-22T11:00:00.000Z,10
2022-08-22T11:15:00.000Z,10.24
2022-08-22T11:30:00.000Z,11.41
2022-08-22T11:45:00.000Z,7.81
2022-08-22T12:00:00.000Z,7.74
2022-08-22T12:15:00.000Z,7.74
2022-08-22T12:30:00.000Z,8.12
2022-08-22T12:45:00.000Z,9.71
2022-08-22T13:00:00.000Z,8.75
2022-08-22T13:15:00.000Z,8.92
2022-08-22T13:30:00.000Z,9.19
2022-08-22T13:45:00.000Z,9.26
2022-08-22T14:00:00.000Z,8.91
2022-08-22T14:15:00.000Z,9.68
2022-08-22T14:30:00.000Z,10.25
2022-08-22T14:45:00.000Z,10.56
2022-08-22T15:00:00.000Z,10.2
2022-08-22T15:15:00.000Z,10.04
2022-08-22T15:30:00.000Z,9.69
2022-08-22T15:45:00.000Z,9.26
2022-08-22T16:00:00.000Z,10.38
2022-08-22T16:15:00.000Z,9.26
2022-08-22T16:30:00.000Z,9.28
2022-08-22T16:45:00.000Z,9.42
2022-08-22T17:00:00.000Z,10.08
2022-08-22T17:15:00.000Z,9.85
2022-08-22T17:30:00.000Z,9.87
2022-08-22T17:45:00.000Z,9.06
2022-08-22T18:00:00.000Z,7.75
2022-08-22T18:15:00.000Z,8
2022-08-22T18:30:00.000Z,7.76
2022-08-22T18:45:00.000Z,8.39
2022-08-22T19:00:00.000Z,7.65
2022-08-22T19:15:00.000Z,7.61
2022-08-22T19:30:00.000Z,8.89
2022-08-22T19:45:00.000Z,8.16
2022-08-22T20:00:00.000Z,9.94
2022-08-22T20:15:00.000Z,9.56
2022-08-22T20:30:00.000Z,9.12
2022-08-22T20:45:00.000Z,9.31
2022-08-22T21:00:00.000Z,10.07
2022-08-22T21:15:00.000Z,10.73
2022-08-22T21:30:00.000Z,11.45
2022-08-22T21:45:00.000Z,10.21
2022-08-22T22:00:00.000Z,10.46
2022-08-22T22:15:00.000Z,10.16
2022-08-22T22:30:00.000Z,10.89
2022-08-22T22:45:00.000Z,10.74
2022-08-22T23:00:00.000Z,13.24
2022-08-22T23:15:00.000Z,10.69
2022-08-22T23:30:00.000Z,11.09
2022-08-22T23:45:00.000Z,10.47
